sensor_id;sensor_type;location;lat;lon;timestamp;pressure;altitude;pressure_sealevel;temperature;humidity
42067;BME280;27734;47.028;28.820;2022-07-25T00:00:25;100302.95;;;23.98;61.07
42067;BME280;27734;47.028;28.820;2022-07-25T00:03:10;100304.94;;;23.90;61.21
42067;BME280;27734;47.028;28.820;2022-07-25T00:05:47;100305.00;;;23.86;61.97
42067;BME280;27734;47.028;28.820;2022-07-25T00:08:31;100297.91;;;23.82;62.21
42067;BME280;27734;47.028;28.820;2022-07-25T00:11:05;100296.27;;;23.77;61.92
42067;BME280;27734;47.028;28.820;2022-07-25T00:13:39;100297.23;;;23.73;62.16
42067;BME280;27734;47.028;28.820;2022-07-25T00:16:15;100303.59;;;23.68;62.28
42067;BME280;27734;47.028;28.820;2022-07-25T00:18:50;100300.01;;;23.68;62.60
42067;BME280;27734;47.028;28.820;2022-07-25T00:21:42;100303.69;;;23.64;62.55
42067;BME280;27734;47.028;28.820;2022-07-25T00:24:20;100308.20;;;23.60;62.67
42067;BME280;27734;47.028;28.820;2022-07-25T00:26:54;100306.56;;;23.55;62.96
42067;BME280;27734;47.028;28.820;2022-07-25T00:29:26;100305.69;;;23.53;63.30
42067;BME280;27734;47.028;28.820;2022-07-25T00:32:13;100300.33;;;23.53;63.00
42067;BME280;27734;47.028;28.820;2022-07-25T00:34:51;100308.39;;;23.51;63.18
42067;BME280;27734;47.028;28.820;2022-07-25T00:37:32;100303.10;;;23.48;63.57
42067;BME280;27734;47.028;28.820;2022-07-25T00:40:08;100303.17;;;23.45;64.05
42067;BME280;27734;47.028;28.820;2022-07-25T00:42:41;100307.78;;;23.38;63.59
42067;BME280;27734;47.028;28.820;2022-07-25T00:45:20;100310.55;;;23.33;63.52
42067;BME280;27734;47.028;28.820;2022-07-25T00:48:00;100314.21;;;23.28;64.21
42067;BME280;27734;47.028;28.820;2022-07-25T00:50:32;100309.83;;;23.25;63.76
42067;BME280;27734;47.028;28.820;2022-07-25T00:53:08;100305.43;;;23.21;64.24
42067;BME280;27734;47.028;28.820;2022-07-25T00:55:40;100315.27;;;23.21;64.30
42067;BME280;27734;47.028;28.820;2022-07-25T00:58:21;100312.62;;;23.19;64.30
42067;BME280;27734;47.028;28.820;2022-07-25T01:01:08;100307.33;;;23.16;64.19
42067;BME280;27734;47.028;28.820;2022-07-25T01:03:51;100314.48;;;23.15;63.87
42067;BME280;27734;47.028;28.820;2022-07-25T01:06:31;100314.52;;;23.14;64.22
42067;BME280;27734;47.028;28.820;2022-07-25T01:09:20;100309.19;;;23.12;63.74
42067;BME280;27734;47.028;28.820;2022-07-25T01:11:53;100308.28;;;23.12;64.76
42067;BME280;27734;47.028;28.820;2022-07-25T01:14:29;100307.44;;;23.10;64.39
42067;BME280;27734;47.028;28.820;2022-07-25T01:17:02;100311.91;;;23.08;64.42
42067;BME280;27734;47.028;28.820;2022-07-25T01:19:39;100307.47;;;23.07;64.88
42067;BME280;27734;47.028;28.820;2022-07-25T01:22:14;100316.39;;;23.06;64.72
42067;BME280;27734;47.028;28.820;2022-07-25T01:24:54;100311.09;;;23.03;64.24
42067;BME280;27734;47.028;28.820;2022-07-25T01:27:38;100308.48;;;23.00;65.31
42067;BME280;27734;47.028;28.820;2022-07-25T01:30:29;100305.86;;;22.96;64.98
42067;BME280;27734;47.028;28.820;2022-07-25T01:33:09;100305.05;;;22.93;65.08
42067;BME280;27734;47.028;28.820;2022-07-25T01:35:46;100302.45;;;22.88;65.18
42067;BME280;27734;47.028;28.820;2022-07-25T01:38:32;100314.08;;;22.86;65.48
42067;BME280;27734;47.028;28.820;2022-07-25T01:41:07;100302.51;;;22.85;65.05
42067;BME280;27734;47.028;28.820;2022-07-25T01:43:44;100299.83;;;22.85;65.66
42067;BME280;27734;47.028;28.820;2022-07-25T01:46:17;100307.88;;;22.84;65.08
42067;BME280;27734;47.028;28.820;2022-07-25T01:48:55;100305.23;;;22.82;64.91
42067;BME280;27734;47.028;28.820;2022-07-25T01:51:31;100302.56;;;22.82;65.55
42067;BME280;27734;47.028;28.820;2022-07-25T01:54:04;100299.91;;;22.80;65.51
42067;BME280;27734;47.028;28.820;2022-07-25T01:56:44;100306.19;;;22.78;65.53
42067;BME280;27734;47.028;28.820;2022-07-25T01:59:46;100306.24;;;22.75;65.46
42067;BME280;27734;47.028;28.820;2022-07-25T02:02:46;100308.94;;;22.73;65.55
42067;BME280;27734;47.028;28.820;2022-07-25T02:05:27;100314.32;;;22.72;65.28
42067;BME280;27734;47.028;28.820;2022-07-25T02:08:14;100317.95;;;22.69;65.78
42067;BME280;27734;47.028;28.820;2022-07-25T02:11:12;100305.45;;;22.70;65.51
42067;BME280;27734;47.028;28.820;2022-07-25T02:13:50;100316.25;;;22.64;65.98
42067;BME280;27734;47.028;28.820;2022-07-25T02:16:22;100323.53;;;22.55;65.73
42067;BME280;27734;47.028;28.820;2022-07-25T02:18:56;100312.88;;;22.52;66.06
42067;BME280;27734;47.028;28.820;2022-07-25T02:21:28;100317.38;;;22.50;65.77
42067;BME280;27734;47.028;28.820;2022-07-25T02:24:01;100316.53;;;22.47;66.35
42067;BME280;27734;47.028;28.820;2022-07-25T02:26:50;100321.05;;;22.43;66.34
42067;BME280;27734;47.028;28.820;2022-07-25T02:29:28;100321.97;;;22.40;66.51
42067;BME280;27734;47.028;28.820;2022-07-25T02:32:10;100320.25;;;22.38;66.87
42067;BME280;27734;47.028;28.820;2022-07-25T02:34:50;100323.80;;;22.38;66.58
42067;BME280;27734;47.028;28.820;2022-07-25T02:37:22;100334.52;;;22.37;67.80
42067;BME280;27734;47.028;28.820;2022-07-25T02:39:57;100345.27;;;22.32;67.05
42067;BME280;27734;47.028;28.820;2022-07-25T02:42:42;100349.77;;;22.29;67.15
42067;BME280;27734;47.028;28.820;2022-07-25T02:45:14;100348.87;;;22.26;67.70
42067;BME280;27734;47.028;28.820;2022-07-25T02:47:49;100356.06;;;22.23;67.17
42067;BME280;27734;47.028;28.820;2022-07-25T02:50:22;100354.38;;;22.16;67.86
42067;BME280;27734;47.028;28.820;2022-07-25T02:52:55;100359.77;;;22.13;68.15
42067;BME280;27734;47.028;28.820;2022-07-25T02:55:26;100349.08;;;22.13;68.08
42067;BME280;27734;47.028;28.820;2022-07-25T02:57:58;100358.94;;;22.09;68.05
42067;BME280;27734;47.028;28.820;2022-07-25T03:00:37;100366.09;;;22.07;68.52
42067;BME280;27734;47.028;28.820;2022-07-25T03:03:11;100367.95;;;22.02;68.64
42067;BME280;27734;47.028;28.820;2022-07-25T03:05:47;100373.32;;;22.00;68.49
42067;BME280;27734;47.028;28.820;2022-07-25T03:08:22;100373.36;;;21.97;69.56
42067;BME280;27734;47.028;28.820;2022-07-25T03:11:01;100371.64;;;21.92;69.07
42067;BME280;27734;47.028;28.820;2022-07-25T03:13:50;100369.94;;;21.84;69.56
42067;BME280;27734;47.028;28.820;2022-07-25T03:16:26;100369.07;;;21.84;69.15
42067;BME280;27734;47.028;28.820;2022-07-25T03:19:08;100370.88;;;21.83;69.01
42067;BME280;27734;47.028;28.820;2022-07-25T03:21:52;100375.34;;;21.80;69.57
42067;BME280;27734;47.028;28.820;2022-07-25T03:24:25;100382.52;;;21.76;69.52
42067;BME280;27734;47.028;28.820;2022-07-25T03:27:03;100381.66;;;21.74;68.52
42067;BME280;27734;47.028;28.820;2022-07-25T03:29:42;100386.98;;;21.76;68.36
42067;BME280;27734;47.028;28.820;2022-07-25T03:32:14;100388.73;;;21.77;69.43
42067;BME280;27734;47.028;28.820;2022-07-25T03:34:48;100389.71;;;21.71;68.44
42067;BME280;27734;47.028;28.820;2022-07-25T03:37:50;100389.73;;;21.69;69.43
42067;BME280;27734;47.028;28.820;2022-07-25T03:40:24;100396.83;;;21.69;69.04
42067;BME280;27734;47.028;28.820;2022-07-25T03:43:00;100397.80;;;21.65;69.70
42067;BME280;27734;47.028;28.820;2022-07-25T03:45:36;100398.65;;;21.67;68.69
42067;BME280;27734;47.028;28.820;2022-07-25T03:48:15;100401.28;;;21.70;68.76
42067;BME280;27734;47.028;28.820;2022-07-25T03:50:50;100399.48;;;21.70;68.85
42067;BME280;27734;47.028;28.820;2022-07-25T03:53:27;100403.03;;;21.74;68.11
42067;BME280;27734;47.028;28.820;2022-07-25T03:56:19;100401.20;;;21.78;68.85
42067;BME280;27734;47.028;28.820;2022-07-25T03:58:57;100407.41;;;21.78;68.34
42067;BME280;27734;47.028;28.820;2022-07-25T04:01:30;100402.97;;;21.79;68.58
42067;BME280;27734;47.028;28.820;2022-07-25T04:04:05;100403.83;;;21.81;68.59
42067;BME280;27734;47.028;28.820;2022-07-25T04:06:40;100406.48;;;21.82;67.79
42067;BME280;27734;47.028;28.820;2022-07-25T04:09:16;100407.31;;;21.86;68.35
42067;BME280;27734;47.028;28.820;2022-07-25T04:11:53;100405.53;;;21.88;67.67
42067;BME280;27734;47.028;28.820;2022-07-25T04:14:29;100403.72;;;21.90;67.51
42067;BME280;27734;47.028;28.820;2022-07-25T04:17:07;100403.68;;;21.93;67.35
42067;BME280;27734;47.028;28.820;2022-07-25T04:19:42;100410.74;;;21.99;67.27
42067;BME280;27734;47.028;28.820;2022-07-25T04:22:21;100409.78;;;22.03;67.00
42067;BME280;27734;47.028;28.820;2022-07-25T04:24:54;100416.05;;;22.02;66.58
42067;BME280;27734;47.028;28.820;2022-07-25T04:27:28;100423.17;;;22.00;66.93
42067;BME280;27734;47.028;28.820;2022-07-25T04:30:05;100417.87;;;21.97;66.38
42067;BME280;27734;47.028;28.820;2022-07-25T04:35:39;100418.80;;;21.96;65.20
42067;BME280;27734;47.028;28.820;2022-07-25T04:38:11;100427.72;;;21.93;65.69
42067;BME280;27734;47.028;28.820;2022-07-25T04:40:44;100426.81;;;21.96;64.90
42067;BME280;27734;47.028;28.820;2022-07-25T04:43:16;100425.81;;;22.03;65.52
42067;BME280;27734;47.028;28.820;2022-07-25T04:45:57;100427.52;;;22.10;64.89
42067;BME280;27734;47.028;28.820;2022-07-25T04:48:40;100430.98;;;22.17;64.40
42067;BME280;27734;47.028;28.820;2022-07-25T04:51:24;100432.73;;;22.19;64.59
42067;BME280;27734;47.028;28.820;2022-07-25T04:53:58;100428.20;;;22.24;63.35
42067;BME280;27734;47.028;28.820;2022-07-25T04:56:38;100431.79;;;22.22;63.14
42067;BME280;27734;47.028;28.820;2022-07-25T04:59:15;100439.81;;;22.22;63.24
42067;BME280;27734;47.028;28.820;2022-07-25T05:01:48;100437.22;;;22.16;62.75
42067;BME280;27734;47.028;28.820;2022-07-25T05:04:41;100434.55;;;22.16;62.72
42067;BME280;27734;47.028;28.820;2022-07-25T05:07:18;100429.20;;;22.16;62.38
42067;BME280;27734;47.028;28.820;2022-07-25T05:09:57;100430.06;;;22.19;61.32
42067;BME280;27734;47.028;28.820;2022-07-25T05:15:28;100433.65;;;22.17;60.59
42067;BME280;27734;47.028;28.820;2022-07-25T05:20:46;100418.47;;;22.19;59.78
42067;BME280;27734;47.028;28.820;2022-07-25T05:23:24;100430.05;;;22.21;59.98
42067;BME280;27734;47.028;28.820;2022-07-25T05:26:09;100428.25;;;22.21;58.98
42067;BME280;27734;47.028;28.820;2022-07-25T05:28:45;100430.06;;;22.19;58.24
42067;BME280;27734;47.028;28.820;2022-07-25T05:31:22;100425.59;;;22.20;58.04
42067;BME280;27734;47.028;28.820;2022-07-25T05:34:01;100422.09;;;22.16;56.98
42067;BME280;27734;47.028;28.820;2022-07-25T05:37:09;100426.50;;;22.17;56.73
42067;BME280;27734;47.028;28.820;2022-07-25T05:39:56;100430.05;;;22.21;55.60
42067;BME280;27734;47.028;28.820;2022-07-25T05:42:55;100424.62;;;22.27;56.41
42067;BME280;27734;47.028;28.820;2022-07-25T05:48:48;100427.98;;;22.43;55.41
42067;BME280;27734;47.028;28.820;2022-07-25T05:57:49;100425.16;;;22.54;54.96
42067;BME280;27734;47.028;28.820;2022-07-25T06:01:10;100425.05;;;22.61;55.22
42067;BME280;27734;47.028;28.820;2022-07-25T06:04:01;100418.67;;;22.69;54.82
42067;BME280;27734;47.028;28.820;2022-07-25T06:06:48;100424.91;;;22.71;53.56
42067;BME280;27734;47.028;28.820;2022-07-25T06:09:34;100418.58;;;22.75;52.92
42067;BME280;27734;47.028;28.820;2022-07-25T06:12:37;100427.48;;;22.77;52.12
42067;BME280;27734;47.028;28.820;2022-07-25T06:15:46;100414.89;;;22.84;51.89
42067;BME280;27734;47.028;28.820;2022-07-25T06:25:56;100405.59;;;23.09;51.64
42067;BME280;27734;47.028;28.820;2022-07-25T06:29:11;100398.27;;;23.19;51.92
42067;BME280;27734;47.028;28.820;2022-07-25T06:32:48;100395.42;;;23.28;51.63
42067;BME280;27734;47.028;28.820;2022-07-25T06:36:07;100396.16;;;23.37;51.33
42067;BME280;27734;47.028;28.820;2022-07-25T06:42:10;100402.15;;;23.49;50.67
42067;BME280;27734;47.028;28.820;2022-07-25T06:45:07;100402.94;;;23.56;49.74
42067;BME280;27734;47.028;28.820;2022-07-25T06:48:33;100402.73;;;23.67;50.47
42067;BME280;27734;47.028;28.820;2022-07-25T06:51:24;100392.64;;;23.80;50.15
42067;BME280;27734;47.028;28.820;2022-07-25T06:54:26;100396.78;;;23.96;49.10
42067;BME280;27734;47.028;28.820;2022-07-25T07:07:24;100391.86;;;24.18;45.70
42067;BME280;27734;47.028;28.820;2022-07-25T07:10:13;100395.97;;;24.33;46.42
42067;BME280;27734;47.028;28.820;2022-07-25T07:12:50;100400.91;;;24.52;45.78
42067;BME280;27734;47.028;28.820;2022-07-25T07:23:19;100408.08;;;25.25;44.50
42067;BME280;27734;47.028;28.820;2022-07-25T07:26:29;100394.11;;;25.46;43.42
42067;BME280;27734;47.028;28.820;2022-07-25T07:36:35;100399.87;;;25.64;44.00
42067;BME280;27734;47.028;28.820;2022-07-25T07:42:49;100392.53;;;26.02;43.71
42067;BME280;27734;47.028;28.820;2022-07-25T07:49:53;100394.06;;;26.11;43.17
42067;BME280;27734;47.028;28.820;2022-07-25T07:56:11;100384.05;;;26.44;42.28
42067;BME280;27734;47.028;28.820;2022-07-25T07:59:31;100384.31;;;26.65;39.01
42067;BME280;27734;47.028;28.820;2022-07-25T08:12:17;100378.02;;;26.93;38.94
42067;BME280;27734;47.028;28.820;2022-07-25T08:15:29;100374.34;;;26.95;39.46
42067;BME280;27734;47.028;28.820;2022-07-25T08:18:29;100355.73;;;27.14;38.51
42067;BME280;27734;47.028;28.820;2022-07-25T08:21:20;100374.05;;;27.30;37.60
42067;BME280;27734;47.028;28.820;2022-07-25T08:24:13;100363.56;;;27.47;38.32
42067;BME280;27734;47.028;28.820;2022-07-25T08:27:04;100362.42;;;27.78;38.09
42067;BME280;27734;47.028;28.820;2022-07-25T08:29:53;100360.16;;;27.91;37.60
42067;BME280;27734;47.028;28.820;2022-07-25T08:33:16;100365.96;;;27.80;37.59
42067;BME280;27734;47.028;28.820;2022-07-25T08:36:10;100362.83;;;27.67;37.68
42067;BME280;27734;47.028;28.820;2022-07-25T08:45:25;100356.63;;;28.12;37.00
42067;BME280;27734;47.028;28.820;2022-07-25T08:55:20;100342.45;;;28.07;36.52
42067;BME280;27734;47.028;28.820;2022-07-25T08:58:11;100337.19;;;28.04;35.79
42067;BME280;27734;47.028;28.820;2022-07-25T09:04:19;100339.27;;;28.42;36.15
42067;BME280;27734;47.028;28.820;2022-07-25T09:07:37;100338.64;;;28.57;35.90
42067;BME280;27734;47.028;28.820;2022-07-25T09:10:23;100338.77;;;28.54;35.67
42067;BME280;27734;47.028;28.820;2022-07-25T09:19:17;100338.91;;;28.73;35.25
42067;BME280;27734;47.028;28.820;2022-07-25T09:22:26;100339.87;;;28.72;34.52
42067;BME280;27734;47.028;28.820;2022-07-25T09:25:33;100329.45;;;28.63;34.57
42067;BME280;27734;47.028;28.820;2022-07-25T09:28:17;100337.97;;;28.52;34.25
42067;BME280;27734;47.028;28.820;2022-07-25T09:31:10;100343.74;;;28.43;34.90
42067;BME280;27734;47.028;28.820;2022-07-25T09:33:56;100345.64;;;28.41;34.74
42067;BME280;27734;47.028;28.820;2022-07-25T09:39:56;100337.49;;;28.64;34.33
42067;BME280;27734;47.028;28.820;2022-07-25T09:42:58;100338.23;;;28.68;33.71
42067;BME280;27734;47.028;28.820;2022-07-25T09:46:16;100336.72;;;28.61;33.28
42067;BME280;27734;47.028;28.820;2022-07-25T09:49:02;100321.42;;;28.61;33.75
42067;BME280;27734;47.028;28.820;2022-07-25T09:52:03;100332.03;;;28.66;32.96
42067;BME280;27734;47.028;28.820;2022-07-25T09:54:56;100325.20;;;28.78;33.11
42067;BME280;27734;47.028;28.820;2022-07-25T10:01:09;100321.77;;;28.74;33.42
42067;BME280;27734;47.028;28.820;2022-07-25T10:04:11;100321.16;;;28.67;33.52
42067;BME280;27734;47.028;28.820;2022-07-25T10:06:54;100322.90;;;28.68;33.30
42067;BME280;27734;47.028;28.820;2022-07-25T10:09:44;100315.98;;;28.83;33.19
42067;BME280;27734;47.028;28.820;2022-07-25T10:12:24;100316.84;;;28.84;33.23
42067;BME280;27734;47.028;28.820;2022-07-25T10:15:24;100304.58;;;28.77;33.31
42067;BME280;27734;47.028;28.820;2022-07-25T10:18:20;100310.30;;;28.69;33.35
42067;BME280;27734;47.028;28.820;2022-07-25T10:21:12;100321.97;;;28.69;33.63
42067;BME280;27734;47.028;28.820;2022-07-25T10:24:17;100316.05;;;28.82;33.48
42067;BME280;27734;47.028;28.820;2022-07-25T10:27:38;100304.24;;;28.84;33.16
42067;BME280;27734;47.028;28.820;2022-07-25T10:30:55;100309.91;;;28.99;33.26
42067;BME280;27734;47.028;28.820;2022-07-25T10:33:50;100291.67;;;29.04;33.10
42067;BME280;27734;47.028;28.820;2022-07-25T10:36:56;100304.23;;;29.05;32.65
42067;BME280;27734;47.028;28.820;2022-07-25T10:39:41;100302.94;;;29.14;32.53
42067;BME280;27734;47.028;28.820;2022-07-25T10:45:56;100289.98;;;29.43;32.48
42067;BME280;27734;47.028;28.820;2022-07-25T10:48:55;100289.03;;;29.44;32.17
42067;BME280;27734;47.028;28.820;2022-07-25T10:52:03;100296.53;;;29.37;31.75
42067;BME280;27734;47.028;28.820;2022-07-25T10:54:55;100285.44;;;29.43;32.04
42067;BME280;27734;47.028;28.820;2022-07-25T10:58:07;100281.08;;;29.60;31.67
42067;BME280;27734;47.028;28.820;2022-07-25T11:01:33;100287.02;;;29.87;31.75
42067;BME280;27734;47.028;28.820;2022-07-25T11:07:49;100279.88;;;29.86;31.13
42067;BME280;27734;47.028;28.820;2022-07-25T11:17:30;100268.42;;;29.41;30.81
42067;BME280;27734;47.028;28.820;2022-07-25T11:20:39;100271.20;;;29.39;31.24
42067;BME280;27734;47.028;28.820;2022-07-25T11:27:36;100269.23;;;29.62;31.27
42067;BME280;27734;47.028;28.820;2022-07-25T11:34:57;100263.67;;;29.65;31.25
42067;BME280;27734;47.028;28.820;2022-07-25T11:38:02;100260.10;;;29.46;30.90
42067;BME280;27734;47.028;28.820;2022-07-25T11:40:58;100258.84;;;29.34;30.90
42067;BME280;27734;47.028;28.820;2022-07-25T11:44:15;100262.16;;;29.40;31.36
42067;BME280;27734;47.028;28.820;2022-07-25T11:50:49;100251.20;;;29.44;31.16
42067;BME280;27734;47.028;28.820;2022-07-25T11:56:52;100252.36;;;29.38;31.17
42067;BME280;27734;47.028;28.820;2022-07-25T12:03:13;100242.33;;;29.00;31.42
42067;BME280;27734;47.028;28.820;2022-07-25T12:06:16;100248.98;;;29.12;31.61
42067;BME280;27734;47.028;28.820;2022-07-25T12:08:51;100238.47;;;29.27;31.08
42067;BME280;27734;47.028;28.820;2022-07-25T12:18:07;100237.85;;;29.20;30.61
42067;BME280;27734;47.028;28.820;2022-07-25T12:21:11;100225.55;;;29.33;30.85
42067;BME280;27734;47.028;28.820;2022-07-25T12:24:11;100222.12;;;29.49;30.76
42067;BME280;27734;47.028;28.820;2022-07-25T12:30:53;100205.97;;;29.66;30.24
42067;BME280;27734;47.028;28.820;2022-07-25T12:33:56;100220.23;;;29.89;30.19
42067;BME280;27734;47.028;28.820;2022-07-25T12:47:04;100194.20;;;29.86;30.08
42067;BME280;27734;47.028;28.820;2022-07-25T12:56:37;100181.27;;;30.10;29.70
42067;BME280;27734;47.028;28.820;2022-07-25T12:59:40;100178.64;;;30.09;29.73
42067;BME280;27734;47.028;28.820;2022-07-25T13:02:39;100169.02;;;30.03;29.87
42067;BME280;27734;47.028;28.820;2022-07-25T13:05:47;100170.05;;;30.01;29.43
42067;BME280;27734;47.028;28.820;2022-07-25T13:12:18;100166.60;;;29.80;30.04
42067;BME280;27734;47.028;28.820;2022-07-25T13:15:26;100170.09;;;29.82;29.86
42067;BME280;27734;47.028;28.820;2022-07-25T13:18:33;100174.23;;;29.70;29.66
42067;BME280;27734;47.028;28.820;2022-07-25T13:21:41;100158.23;;;29.65;29.85
42067;BME280;27734;47.028;28.820;2022-07-25T13:24:30;100156.95;;;29.55;29.90
42067;BME280;27734;47.028;28.820;2022-07-25T13:27:29;100162.66;;;29.49;29.71
42067;BME280;27734;47.028;28.820;2022-07-25T13:30:18;100153.98;;;29.42;30.02
42067;BME280;27734;47.028;28.820;2022-07-25T13:33:00;100160.91;;;29.29;30.11
42067;BME280;27734;47.028;28.820;2022-07-25T13:35:58;100146.17;;;29.36;30.25
42067;BME280;27734;47.028;28.820;2022-07-25T13:38:42;100152.49;;;29.54;30.26
42067;BME280;27734;47.028;28.820;2022-07-25T13:41:47;100146.03;;;29.75;30.07
42067;BME280;27734;47.028;28.820;2022-07-25T13:44:49;100138.80;;;29.95;29.65
42067;BME280;27734;47.028;28.820;2022-07-25T13:47:55;100139.97;;;30.07;29.47
42067;BME280;27734;47.028;28.820;2022-07-25T13:54:29;100138.87;;;30.28;29.35
42067;BME280;27734;47.028;28.820;2022-07-25T13:57:53;100139.50;;;30.34;29.38
42067;BME280;27734;47.028;28.820;2022-07-25T14:04:30;100142.21;;;30.16;28.81
42067;BME280;27734;47.028;28.820;2022-07-25T14:07:54;100145.55;;;30.04;28.88
42067;BME280;27734;47.028;28.820;2022-07-25T14:10:54;100131.31;;;30.00;28.93
42067;BME280;27734;47.028;28.820;2022-07-25T14:13:57;100128.69;;;29.99;28.95
42067;BME280;27734;47.028;28.820;2022-07-25T14:20:14;100129.86;;;29.93;29.19
42067;BME280;27734;47.028;28.820;2022-07-25T14:23:12;100132.95;;;29.85;29.01
42067;BME280;27734;47.028;28.820;2022-07-25T14:26:41;100121.11;;;29.88;29.05
42067;BME280;27734;47.028;28.820;2022-07-25T14:33:00;100110.38;;;30.04;28.95
42067;BME280;27734;47.028;28.820;2022-07-25T14:35:49;100104.97;;;30.04;29.00
42067;BME280;27734;47.028;28.820;2022-07-25T14:38:53;100106.73;;;30.05;28.89
42067;BME280;27734;47.028;28.820;2022-07-25T14:41:35;100103.39;;;30.00;28.97
42067;BME280;27734;47.028;28.820;2022-07-25T14:44:19;100106.34;;;29.95;29.09
42067;BME280;27734;47.028;28.820;2022-07-25T14:47:23;100106.88;;;29.84;29.11
42067;BME280;27734;47.028;28.820;2022-07-25T14:52:55;100106.09;;;29.63;29.15
42067;BME280;27734;47.028;28.820;2022-07-25T14:55:54;100105.11;;;29.47;29.46
42067;BME280;27734;47.028;28.820;2022-07-25T14:58:36;100098.09;;;29.43;29.36
42067;BME280;27734;47.028;28.820;2022-07-25T15:01:21;100097.38;;;29.39;29.54
42067;BME280;27734;47.028;28.820;2022-07-25T15:03:56;100102.03;;;29.35;29.35
42067;BME280;27734;47.028;28.820;2022-07-25T15:06:41;100088.75;;;29.31;29.32
42067;BME280;27734;47.028;28.820;2022-07-25T15:09:15;100092.42;;;29.30;29.26
42067;BME280;27734;47.028;28.820;2022-07-25T15:11:52;100099.62;;;29.29;29.51
42067;BME280;27734;47.028;28.820;2022-07-25T15:14:25;100095.34;;;29.25;29.69
42067;BME280;27734;47.028;28.820;2022-07-25T15:17:03;100095.76;;;29.16;29.58
42067;BME280;27734;47.028;28.820;2022-07-25T15:19:46;100093.42;;;29.08;29.83
42067;BME280;27734;47.028;28.820;2022-07-25T15:22:26;100096.48;;;29.00;29.76
42067;BME280;27734;47.028;28.820;2022-07-25T15:25:03;100093.14;;;28.95;29.60
42067;BME280;27734;47.028;28.820;2022-07-25T15:27:42;100104.08;;;28.92;29.70
42067;BME280;27734;47.028;28.820;2022-07-25T15:30:25;100107.94;;;28.86;29.38
42067;BME280;27734;47.028;28.820;2022-07-25T15:33:08;100100.05;;;28.82;29.69
42067;BME280;27734;47.028;28.820;2022-07-25T15:35:54;100103.68;;;28.81;30.07
42067;BME280;27734;47.028;28.820;2022-07-25T15:38:43;100101.95;;;28.80;29.60
42067;BME280;27734;47.028;28.820;2022-07-25T15:41:16;100094.72;;;28.80;29.93
42067;BME280;27734;47.028;28.820;2022-07-25T15:43:52;100098.35;;;28.79;29.76
42067;BME280;27734;47.028;28.820;2022-07-25T15:46:38;100098.35;;;28.79;29.78
42067;BME280;27734;47.028;28.820;2022-07-25T15:49:15;100100.98;;;28.81;30.08
42067;BME280;27734;47.028;28.820;2022-07-25T15:51:55;100100.33;;;28.76;29.72
42067;BME280;27734;47.028;28.820;2022-07-25T15:54:29;100091.64;;;28.69;29.92
42067;BME280;27734;47.028;28.820;2022-07-25T15:57:21;100089.16;;;28.64;29.70
42067;BME280;27734;47.028;28.820;2022-07-25T15:59:53;100095.56;;;28.62;29.96
42067;BME280;27734;47.028;28.820;2022-07-25T16:02:42;100101.09;;;28.59;30.03
42067;BME280;27734;47.028;28.820;2022-07-25T16:05:17;100103.97;;;28.54;29.81
42067;BME280;27734;47.028;28.820;2022-07-25T16:11:01;100099.58;;;28.51;30.05
42067;BME280;27734;47.028;28.820;2022-07-25T16:13:37;100097.02;;;28.48;29.93
42067;BME280;27734;47.028;28.820;2022-07-25T16:16:12;100107.02;;;28.46;29.90
42067;BME280;27734;47.028;28.820;2022-07-25T16:18:51;100097.33;;;28.42;30.17
42067;BME280;27734;47.028;28.820;2022-07-25T16:21:25;100102.92;;;28.38;29.99
42067;BME280;27734;47.028;28.820;2022-07-25T16:24:11;100101.30;;;28.33;30.15
42067;BME280;27734;47.028;28.820;2022-07-25T16:26:46;100101.50;;;28.29;30.21
42067;BME280;27734;47.028;28.820;2022-07-25T16:29:25;100103.53;;;28.24;30.66
42067;BME280;27734;47.028;28.820;2022-07-25T16:32:08;100089.28;;;28.20;30.73
42067;BME280;27734;47.028;28.820;2022-07-25T16:34:39;100096.58;;;28.18;30.53
42067;BME280;27734;47.028;28.820;2022-07-25T16:37:14;100093.08;;;28.16;30.27
42067;BME280;27734;47.028;28.820;2022-07-25T16:39:46;100097.58;;;28.15;30.37
42067;BME280;27734;47.028;28.820;2022-07-25T16:42:17;100099.54;;;28.12;30.65
42067;BME280;27734;47.028;28.820;2022-07-25T16:44:51;100104.20;;;28.08;30.92
42067;BME280;27734;47.028;28.820;2022-07-25T16:47:27;100099.94;;;28.03;30.55
42067;BME280;27734;47.028;28.820;2022-07-25T16:50:01;100102.89;;;27.96;30.89
42067;BME280;27734;47.028;28.820;2022-07-25T16:52:43;100102.99;;;27.93;30.84
42067;BME280;27734;47.028;28.820;2022-07-25T16:55:26;100101.33;;;27.91;30.73
42067;BME280;27734;47.028;28.820;2022-07-25T16:58:03;100106.84;;;27.88;31.18
42067;BME280;27734;47.028;28.820;2022-07-25T17:00:38;100103.38;;;27.84;31.03
42067;BME280;27734;47.028;28.820;2022-07-25T17:03:17;100105.41;;;27.79;31.15
42067;BME280;27734;47.028;28.820;2022-07-25T17:06:04;100102.97;;;27.73;31.12
42067;BME280;27734;47.028;28.820;2022-07-25T17:08:50;100103.16;;;27.68;31.05
42067;BME280;27734;47.028;28.820;2022-07-25T17:11:29;100100.78;;;27.60;30.79
42067;BME280;27734;47.028;28.820;2022-07-25T17:14:03;100099.27;;;27.53;30.87
42067;BME280;27734;47.028;28.820;2022-07-25T17:16:39;100104.90;;;27.47;31.21
42067;BME280;27734;47.028;28.820;2022-07-25T17:19:21;100103.36;;;27.41;31.55
42067;BME280;27734;47.028;28.820;2022-07-25T17:21:54;100108.06;;;27.36;31.34
42067;BME280;27734;47.028;28.820;2022-07-25T17:24:31;100108.25;;;27.32;31.79
42067;BME280;27734;47.028;28.820;2022-07-25T17:27:20;100111.09;;;27.27;31.52